Time;durP1;ratioP1;P1;durP2;ratioP2;P2;SDS_P1;SDS_P2;PMS_P1;PMS_P2;Temp;Humidity;BMP_temperature;BMP_pressure;BME280_temperature;BME280_humidity;BME280_pressure;Samples;Min_cycle;Max_cycle;Signal;HPM_P1;HPM_P2
2021/06/10 00:00:29;;;;;;;5.85;3.30;;;;;;;17.14;77.36;101766.94;4919424;29;20115;-79
2021/06/10 00:03:14;;;;;;;4.53;3.45;;;;;;;17.52;77.05;101824.06;4976650;23;20137;-77
2021/06/10 00:05:43;;;;;;;5.05;3.78;;;;;;;17.53;77.09;101828.41;4955895;28;20121;-79
2021/06/10 00:08:10;;;;;;;5.45;3.90;;;;;;;17.50;77.69;101832.03;4949954;28;20079;-79
2021/06/10 00:10:42;;;;;;;5.93;4.10;;;;;;;17.45;77.85;101834.03;4933098;29;20067;-77
2021/06/10 00:13:09;;;;;;;4.57;3.47;;;;;;;17.51;77.70;101823.19;4930907;29;20055;-79
2021/06/10 00:15:40;;;;;;;4.97;3.28;;;;;;;17.55;77.35;101830.03;4930030;29;20048;-79
2021/06/10 00:18:11;;;;;;;5.43;3.70;;;;;;;17.52;77.96;101824.06;4928042;29;20059;-80
2021/06/10 00:20:40;;;;;;;5.40;3.38;;;;;;;17.49;77.87;101821.56;4933793;29;20062;-79
2021/06/10 00:23:15;;;;;;;5.03;3.28;;;;;;;17.39;78.62;101824.66;4947911;29;20051;-78
2021/06/10 00:25:41;;;;;;;5.68;3.50;;;;;;;17.35;78.52;101822.25;4946566;29;20055;-79
2021/06/10 00:28:10;;;;;;;4.25;3.22;;;;;;;17.38;78.39;101836.16;4937772;29;20059;-79
2021/06/10 00:30:37;;;;;;;4.35;3.28;;;;;;;17.38;78.53;101822.94;4935250;29;20048;-79
2021/06/10 00:33:04;;;;;;;5.20;3.75;;;;;;;17.49;78.30;101819.78;4944444;29;20405;-79
2021/06/10 00:35:31;;;;;;;4.20;3.20;;;;;;;17.49;78.33;101811.88;4927527;29;20052;-79
2021/06/10 00:38:03;;;;;;;4.00;3.28;;;;;;;17.45;78.44;101810.28;4910792;29;20075;-79
2021/06/10 00:40:35;;;;;;;7.63;4.30;;;;;;;16.73;78.24;101685.38;4925291;29;20052;-79
2021/06/10 00:43:05;;;;;;;4.63;3.45;;;;;;;17.36;78.40;101787.00;4926028;29;20115;-80
2021/06/10 00:45:32;;;;;;;4.70;3.33;;;;;;;17.43;78.31;101801.56;4929332;29;20044;-79
2021/06/10 00:48:02;;;;;;;6.15;4.10;;;;;;;17.45;78.13;101797.09;4943128;29;20047;-80
2021/06/10 00:50:46;;;;;;;6.10;3.80;;;;;;;17.38;78.49;101788.63;4930487;29;20058;-79
2021/06/10 00:53:25;;;;;;;5.55;4.40;;;;;;;17.19;78.65;101759.66;4939157;29;20084;-80
2021/06/10 00:55:55;;;;;;;6.30;4.82;;;;;;;17.27;79.37;101786.53;4924754;29;20052;-80
2021/06/10 00:58:25;;;;;;;6.68;4.72;;;;;;;17.40;79.21;101791.19;4932442;29;20165;-79
2021/06/10 01:00:56;;;;;;;8.02;5.07;;;;;;;17.47;78.83;101789.09;4935307;29;20153;-80
2021/06/10 01:03:25;;;;;;;6.68;5.20;;;;;;;17.37;79.03;101779.00;4927997;29;20055;-79
2021/06/10 01:06:03;;;;;;;7.75;5.53;;;;;;;17.47;78.40;101766.19;4938092;29;20058;-79
2021/06/10 01:08:48;;;;;;;8.50;5.45;;;;;;;17.59;78.26;101783.22;4943078;29;20047;-80
2021/06/10 01:12:07;;;;;;;7.53;6.07;;;;;;;17.60;77.78;101780.50;4945726;29;20063;-80
2021/06/10 01:14:38;;;;;;;9.52;7.28;;;;;;;17.49;78.40;101788.09;4927490;29;20134;-80
2021/06/10 01:17:07;;;;;;;10.68;7.95;;;;;;;17.32;78.66;101765.19;4928750;29;20135;-81
2021/06/10 01:19:39;;;;;;;14.45;9.07;;;;;;;17.53;78.46;101787.00;4926669;29;20056;-80
2021/06/10 01:22:30;;;;;;;13.30;10.32;;;;;;;17.60;77.98;101784.91;4925115;29;20051;-79
2021/06/10 01:25:16;;;;;;;16.40;11.98;;;;;;;17.58;78.72;101773.59;4930129;29;20131;-80
2021/06/10 01:27:47;;;;;;;17.15;12.95;;;;;;;17.53;79.09;101770.34;4924013;29;20060;-80
2021/06/10 01:30:18;;;;;;;24.10;15.57;;;;;;;17.28;79.71;101740.75;4924365;29;20048;-79
2021/06/10 01:32:51;;;;;;;23.58;16.63;;;;;;;17.26;81.08;101761.06;4935571;29;20102;-79
2021/06/10 01:35:21;;;;;;;23.00;16.20;;;;;;;17.04;81.83;101758.63;4943651;29;20044;-79
2021/06/10 01:37:51;;;;;;;27.58;17.88;;;;;;;16.94;82.34;101757.34;4943636;29;20099;-79
2021/06/10 01:40:21;;;;;;;25.15;16.63;;;;;;;17.08;82.57;101773.38;4947400;29;20047;-79
2021/06/10 01:42:48;;;;;;;19.38;15.18;;;;;;;17.15;82.44;101779.22;4944531;29;20445;-79
2021/06/10 01:45:14;;;;;;;22.90;16.17;;;;;;;17.19;81.86;101788.69;4935471;29;20048;-79
2021/06/10 01:47:45;;;;;;;23.25;16.00;;;;;;;17.20;81.89;101790.38;4931632;29;20044;-79
2021/06/10 01:50:14;;;;;;;21.92;14.55;;;;;;;17.24;81.24;101785.81;4927170;29;20051;-79
2021/06/10 01:52:44;;;;;;;17.17;13.00;;;;;;;17.09;81.40;101775.06;4934628;29;20056;-79
2021/06/10 01:55:16;;;;;;;19.23;13.40;;;;;;;16.98;81.78;101777.38;4934721;29;20480;-79
2021/06/10 01:57:44;;;;;;;17.38;12.63;;;;;;;17.08;81.52;101786.56;4928233;29;20089;-79
2021/06/10 02:00:14;;;;;;;17.95;12.48;;;;;;;17.09;81.41;101782.16;4926431;29;20047;-79
2021/06/10 02:02:41;;;;;;;14.23;10.82;;;;;;;17.09;80.53;101797.97;4933298;29;20062;-79
2021/06/10 02:05:09;;;;;;;15.35;10.68;;;;;;;17.10;80.92;101795.25;4935999;29;20048;-80
2021/06/10 02:07:40;;;;;;;15.50;10.27;;;;;;;17.06;80.37;101803.38;4933465;29;20051;-79
2021/06/10 02:10:10;;;;;;;14.95;10.38;;;;;;;16.72;80.33;101753.09;4926974;29;20057;-79
2021/06/10 02:12:36;;;;;;;12.60;9.05;;;;;;;17.03;80.05;101801.75;4924511;29;20072;-80
2021/06/10 02:15:05;;;;;;;12.73;9.10;;;;;;;17.07;80.21;101799.81;4935077;29;20054;-79
2021/06/10 02:17:32;;;;;;;14.50;9.75;;;;;;;17.03;80.24;101792.97;4945233;28;20082;-79
2021/06/10 02:19:58;;;;;;;11.93;8.73;;;;;;;16.74;80.41;101742.47;4924838;29;20088;-79
2021/06/10 02:22:26;;;;;;;16.40;9.27;;;;;;;16.88;81.17;101790.13;4938962;29;20055;-79
2021/06/10 02:24:53;;;;;;;12.35;8.48;;;;;;;17.01;80.98;101792.22;4930427;29;20193;-79
2021/06/10 02:27:20;;;;;;;9.82;7.78;;;;;;;16.78;81.79;101780.91;4923644;29;20047;-80
2021/06/10 02:29:46;;;;;;;13.60;9.18;;;;;;;16.78;82.55;101792.34;4934693;29;20124;-80
2021/06/10 02:32:12;;;;;;;11.52;8.10;;;;;;;16.75;82.60;101791.63;4933494;29;20083;-79
2021/06/10 02:34:38;;;;;;;12.40;8.75;;;;;;;16.62;82.76;101773.75;4919519;29;20440;-80
2021/06/10 02:37:06;;;;;;;12.15;8.02;;;;;;;16.68;83.46;101793.69;4934613;29;20559;-79
2021/06/10 02:39:38;;;;;;;11.40;7.75;;;;;;;16.71;82.59;101787.41;4932802;29;20111;-79
2021/06/10 02:42:05;;;;;;;10.27;7.75;;;;;;;16.62;83.10;101779.03;4922228;29;20183;-79
2021/06/10 02:44:32;;;;;;;11.70;8.13;;;;;;;16.67;82.81;101775.31;4937004;29;20110;-80
2021/06/10 02:47:03;;;;;;;12.27;8.15;;;;;;;16.83;82.46;101789.47;4953655;28;20064;-79
2021/06/10 02:49:31;;;;;;;10.32;6.97;;;;;;;16.89;81.53;101776.00;4961229;29;20118;-79
2021/06/10 02:51:58;;;;;;;9.75;6.70;;;;;;;16.90;81.15;101788.25;4950560;28;20044;-78
2021/06/10 02:54:25;;;;;;;9.88;6.85;;;;;;;16.92;81.23;101790.88;4943167;29;20055;-79
2021/06/10 02:56:52;;;;;;;9.80;6.72;;;;;;;16.88;81.14;101791.88;4928478;29;20063;-80
2021/06/10 02:59:19;;;;;;;11.18;7.03;;;;;;;16.91;81.26;101795.25;4925209;29;20324;-80
2021/06/10 03:01:46;;;;;;;8.98;6.72;;;;;;;16.87;81.14;101787.53;4922132;29;20052;-80
2021/06/10 03:04:14;;;;;;;10.10;6.57;;;;;;;16.77;81.31;101773.94;4937378;29;20052;-80
2021/06/10 03:06:41;;;;;;;7.55;5.57;;;;;;;16.81;81.41;101788.69;4939067;29;20052;-79
2021/06/10 03:09:08;;;;;;;9.95;5.80;;;;;;;16.86;81.09;101793.78;4928770;29;20080;-79
2021/06/10 03:11:37;;;;;;;7.45;5.00;;;;;;;16.71;80.93;101761.91;4952256;29;20047;-82
2021/06/10 03:14:05;;;;;;;7.30;5.00;;;;;;;16.68;81.20;101775.22;4951915;29;20099;-79
2021/06/10 03:16:31;;;;;;;6.93;5.22;;;;;;;16.57;81.51;101764.34;4944796;29;20059;-79
2021/06/10 03:18:59;;;;;;;8.15;5.22;;;;;;;16.68;81.60;101766.47;4944714;29;20048;-78
2021/06/10 03:21:27;;;;;;;8.75;5.35;;;;;;;16.81;81.51;101781.63;4941608;29;20129;-80
2021/06/10 03:23:53;;;;;;;6.22;4.72;;;;;;;16.39;80.86;101686.97;4948929;29;20048;-81
2021/06/10 03:26:23;;;;;;;7.07;4.90;;;;;;;16.91;80.61;101768.88;4938598;29;20040;-80
2021/06/10 03:28:50;;;;;;;6.53;4.35;;;;;;;16.83;80.38;101743.78;4939115;29;20100;-80
2021/06/10 03:31:20;;;;;;;6.95;4.40;;;;;;;17.03;80.78;101792.97;4931037;29;20044;-80
2021/06/10 03:33:49;;;;;;;6.78;3.72;;;;;;;16.87;80.89;101782.25;4925643;29;20048;-80
2021/06/10 03:36:16;;;;;;;5.38;3.20;;;;;;;16.79;81.55;101761.53;4938065;29;20050;-80
2021/06/10 03:38:42;;;;;;;5.43;3.83;;;;;;;16.63;81.56;101762.25;4938560;29;20044;-81
2021/06/10 03:41:09;;;;;;;5.47;3.47;;;;;;;16.69;82.11;101750.59;4937416;29;20051;-80
2021/06/10 03:43:36;;;;;;;4.28;3.00;;;;;;;16.91;81.63;101771.50;4937315;29;20059;-80
2021/06/10 03:46:07;;;;;;;4.28;2.83;;;;;;;16.92;81.73;101759.22;4925851;29;20393;-80
2021/06/10 03:48:34;;;;;;;5.72;3.25;;;;;;;16.75;81.68;101731.81;4918862;29;20048;-79
2021/06/10 03:51:00;;;;;;;5.22;2.88;;;;;;;16.90;81.87;101764.50;4932396;29;20111;-80
2021/06/10 03:53:26;;;;;;;4.40;3.05;;;;;;;16.94;80.96;101767.88;4935883;29;20048;-80
2021/06/10 03:55:53;;;;;;;4.25;2.78;;;;;;;16.85;81.09;101763.03;4933913;29;20052;-80
2021/06/10 03:58:21;;;;;;;3.95;2.80;;;;;;;16.88;81.14;101768.16;4926495;29;20497;-80
2021/06/10 04:00:48;;;;;;;4.60;2.58;;;;;;;16.89;80.95;101768.06;4927064;29;20078;-80
2021/06/10 04:03:14;;;;;;;4.60;2.65;;;;;;;16.86;81.15;101765.59;4922194;29;20056;-80
2021/06/10 04:05:40;;;;;;;3.88;2.47;;;;;;;16.82;81.16;101764.06;4918011;29;20516;-80
2021/06/10 04:08:06;;;;;;;4.28;2.22;;;;;;;16.88;80.92;101762.88;4917965;29;20135;-80
2021/06/10 04:10:32;;;;;;;3.80;2.25;;;;;;;16.94;80.84;101770.53;4918109;29;20520;-80
2021/06/10 04:12:58;;;;;;;3.72;2.25;;;;;;;16.90;80.81;101766.31;4918090;29;20047;-80
2021/06/10 04:15:24;;;;;;;4.15;2.45;;;;;;;16.94;80.58;101773.16;4935103;29;20429;-80
2021/06/10 04:17:50;;;;;;;4.15;2.53;;;;;;;16.87;80.77;101772.59;4932994;29;20051;-80
2021/06/10 04:20:16;;;;;;;3.70;2.22;;;;;;;16.47;80.26;101698.03;4927494;29;20067;-80
2021/06/10 04:22:42;;;;;;;4.60;2.72;;;;;;;16.94;80.66;101771.41;4917904;29;20052;-80
2021/06/10 04:25:09;;;;;;;3.53;2.78;;;;;;;16.82;80.61;101758.78;4917535;29;20516;-79
2021/06/10 04:27:35;;;;;;;4.00;3.03;;;;;;;16.83;81.08;101780.72;4928026;29;20048;-80
2021/06/10 04:30:03;;;;;;;3.60;2.97;;;;;;;16.30;81.18;101702.28;4926335;29;20388;-80
2021/06/10 04:32:29;;;;;;;4.40;2.92;;;;;;;16.88;80.86;101783.97;4951437;29;20059;-79
2021/06/10 04:34:55;;;;;;;3.60;2.72;;;;;;;17.03;80.27;101788.56;4935754;29;20052;-80
2021/06/10 04:37:21;;;;;;;4.15;3.13;;;;;;;17.15;80.03;101780.97;4936355;29;20127;-80
2021/06/10 04:39:47;;;;;;;5.35;3.47;;;;;;;17.17;79.82;101784.41;4916542;29;20083;-80
2021/06/10 04:42:13;;;;;;;5.03;3.53;;;;;;;16.96;79.70;101751.06;4924220;29;20483;-80
2021/06/10 04:44:40;;;;;;;4.60;3.20;;;;;;;16.95;79.38;101740.59;4931064;29;20514;-80
2021/06/10 04:47:08;;;;;;;4.45;3.30;;;;;;;17.04;79.92;101792.91;4917290;29;20056;-80
2021/06/10 04:49:36;;;;;;;5.22;3.63;;;;;;;17.05;80.06;101767.38;4923648;29;20048;-79
2021/06/10 04:52:03;;;;;;;4.20;3.17;;;;;;;17.06;79.67;101756.75;4936254;29;20071;-80
2021/06/10 04:54:29;;;;;;;4.85;3.22;;;;;;;17.18;79.17;101784.31;4921920;29;20075;-81
2021/06/10 04:56:55;;;;;;;3.90;3.00;;;;;;;17.17;79.75;101787.03;4917252;29;20071;-81
2021/06/10 04:59:21;;;;;;;4.72;3.20;;;;;;;16.83;79.27;101727.97;4920558;29;20070;-81
2021/06/10 05:01:47;;;;;;;4.97;3.22;;;;;;;17.25;79.58;101793.66;4921785;29;20059;-80
2021/06/10 05:04:14;;;;;;;4.97;2.90;;;;;;;17.35;78.90;101787.94;4904363;29;20052;-80
2021/06/10 05:06:40;;;;;;;4.82;3.30;;;;;;;17.32;79.11;101791.59;4910722;29;20070;-79
2021/06/10 05:09:07;;;;;;;5.20;3.00;;;;;;;17.41;78.99;101787.63;4939616;29;20054;-78
2021/06/10 05:11:32;;;;;;;4.47;3.08;;;;;;;17.31;78.93;101766.13;4938955;29;20107;-78
2021/06/10 05:13:58;;;;;;;4.82;3.53;;;;;;;17.29;78.95;101770.59;4921639;29;20104;-81
2021/06/10 05:16:28;;;;;;;4.55;2.97;;;;;;;17.39;79.04;101786.84;4916839;29;20056;-80
2021/06/10 05:18:54;;;;;;;4.22;3.28;;;;;;;17.41;78.78;101782.34;4902308;29;20462;-79
2021/06/10 05:21:20;;;;;;;6.07;3.53;;;;;;;17.49;78.12;101781.94;4904997;29;20183;-80
2021/06/10 05:23:47;;;;;;;6.25;3.20;;;;;;;17.39;77.93;101763.97;4902791;29;20055;-80
2021/06/10 05:26:13;;;;;;;4.22;3.20;;;;;;;17.53;77.44;101765.06;4908100;29;20077;-79
2021/06/10 05:28:40;;;;;;;4.25;3.10;;;;;;;17.64;76.95;101756.56;4922338;29;20041;-80
2021/06/10 05:31:07;;;;;;;5.05;3.47;;;;;;;17.76;76.71;101780.56;4908550;29;20056;-79
2021/06/10 05:33:37;;;;;;;4.55;3.28;;;;;;;17.62;76.89;101787.47;4929079;29;20058;-78
2021/06/10 05:36:04;;;;;;;4.00;3.15;;;;;;;17.34;77.50;101759.81;4932265;29;20051;-80
2021/06/10 05:38:31;;;;;;;3.67;3.00;;;;;;;17.50;77.12;101789.78;4934262;29;20048;-78
2021/06/10 05:40:58;;;;;;;4.65;3.17;;;;;;;17.52;77.10;101784.47;4936144;29;20059;-79
2021/06/10 05:43:24;;;;;;;3.95;2.80;;;;;;;17.68;76.72;101773.97;4917170;29;20549;-79
2021/06/10 05:45:51;;;;;;;5.13;3.10;;;;;;;17.62;76.34;101776.91;4916447;29;20044;-79
2021/06/10 05:48:18;;;;;;;4.00;2.80;;;;;;;17.50;76.58;101744.91;4914922;29;20048;-79
2021/06/10 05:50:47;;;;;;;4.10;3.05;;;;;;;17.80;76.26;101783.03;4904316;29;20063;-80
2021/06/10 05:53:17;;;;;;;3.72;2.78;;;;;;;17.89;75.98;101785.22;4902097;29;20053;-79
2021/06/10 05:55:46;;;;;;;3.70;2.80;;;;;;;17.76;75.58;101777.91;4915616;29;20120;-79
2021/06/10 05:58:13;;;;;;;4.22;2.83;;;;;;;17.76;75.78;101777.91;4908296;29;20493;-79
2021/06/10 06:00:39;;;;;;;3.97;2.90;;;;;;;17.71;75.81;101766.75;4903084;29;20079;-80
2021/06/10 06:03:06;;;;;;;3.63;2.65;;;;;;;17.93;75.31;101786.75;4924426;29;20476;-79
2021/06/10 06:05:33;;;;;;;5.10;3.03;;;;;;;17.98;74.64;101763.63;4921369;29;20493;-80
2021/06/10 06:07:59;;;;;;;5.72;2.80;;;;;;;18.10;74.46;101779.78;4920248;29;20173;-80
2021/06/10 06:10:27;;;;;;;3.83;2.58;;;;;;;18.13;73.86;101775.19;4923775;29;20051;-81
2021/06/10 06:12:56;;;;;;;5.93;3.30;;;;;;;18.25;73.94;101781.59;4911984;29;20048;-80
2021/06/10 06:15:22;;;;;;;4.43;2.95;;;;;;;18.31;73.74;101786.56;4940346;29;20099;-80
2021/06/10 06:17:48;;;;;;;4.80;3.03;;;;;;;18.04;74.55;101786.22;4930846;29;20052;-79
2021/06/10 06:20:14;;;;;;;4.20;2.80;;;;;;;18.08;74.58;101795.72;4937464;29;20051;-81
2021/06/10 06:22:43;;;;;;;3.95;2.97;;;;;;;17.93;74.29;101766.47;4938648;29;20048;-80
2021/06/10 06:25:11;;;;;;;4.63;2.90;;;;;;;18.02;75.02;101794.22;4938551;29;20048;-80
2021/06/10 06:27:37;;;;;;;5.82;3.40;;;;;;;18.06;75.03;101800.22;4931886;29;20055;-79
2021/06/10 06:30:05;;;;;;;4.45;3.13;;;;;;;17.99;74.55;101789.13;4921143;29;20079;-80
2021/06/10 06:32:33;;;;;;;5.80;2.78;;;;;;;18.12;74.51;101799.88;4938004;29;20047;-80
2021/06/10 06:34:59;;;;;;;3.97;2.42;;;;;;;18.15;74.03;101802.38;4939138;29;20432;-81
2021/06/10 06:37:25;;;;;;;5.13;3.22;;;;;;;18.20;74.03;101792.41;4938072;29;20054;-81
2021/06/10 06:39:51;;;;;;;4.90;2.75;;;;;;;18.43;73.44;101810.63;4938579;29;20048;-81
2021/06/10 06:42:18;;;;;;;7.88;3.30;;;;;;;18.36;73.33;101805.66;4939548;29;20103;-80
2021/06/10 06:44:45;;;;;;;4.85;2.63;;;;;;;18.31;73.38;101790.97;4942061;29;20063;-81
2021/06/10 06:47:11;;;;;;;4.93;2.78;;;;;;;18.01;72.78;101725.63;4930964;29;20477;-81
2021/06/10 06:49:38;;;;;;;4.50;2.40;;;;;;;18.47;72.54;101804.22;4927386;29;20449;-81
2021/06/10 06:52:05;;;;;;;6.90;3.15;;;;;;;18.43;72.72;101800.91;4927501;29;20052;-80
2021/06/10 06:54:31;;;;;;;6.43;3.42;;;;;;;18.05;73.11;101745.66;4940214;29;20109;-81
2021/06/10 06:56:58;;;;;;;4.53;3.17;;;;;;;18.48;72.86;101806.81;4938023;29;20044;-79
2021/06/10 06:59:25;;;;;;;3.47;2.78;;;;;;;18.50;72.29;101786.41;4940365;29;20051;-80
2021/06/10 07:01:51;;;;;;;4.85;3.35;;;;;;;18.63;72.03;101809.56;4917197;29;20067;-82
2021/06/10 07:04:17;;;;;;;4.00;2.97;;;;;;;18.53;71.97;101811.84;4905249;29;20558;-82
2021/06/10 07:06:43;;;;;;;3.75;2.70;;;;;;;18.46;72.07;101808.66;4901683;29;20127;-82
2021/06/10 07:09:09;;;;;;;3.65;3.13;;;;;;;18.50;72.00;101802.28;4903182;29;20421;-80
2021/06/10 07:11:36;;;;;;;4.53;2.95;;;;;;;18.57;71.94;101800.16;4889367;29;20051;-80
2021/06/10 07:14:03;;;;;;;4.80;2.88;;;;;;;18.42;72.07;101788.63;4909897;29;20055;-80
2021/06/10 07:16:30;;;;;;;3.80;2.90;;;;;;;18.55;72.37;101802.91;4916015;29;20051;-81
2021/06/10 07:18:56;;;;;;;3.80;2.70;;;;;;;18.21;72.20;101780.03;4898328;29;20113;-81
2021/06/10 07:21:22;;;;;;;4.95;3.03;;;;;;;18.47;72.21;101810.38;4918402;29;20437;-81
2021/06/10 07:23:48;;;;;;;4.25;2.88;;;;;;;18.37;72.33;101790.66;4913055;29;20044;-83
2021/06/10 07:26:14;;;;;;;3.47;2.58;;;;;;;18.59;72.09;101813.28;4901644;29;20052;-83
2021/06/10 07:28:40;;;;;;;4.78;2.88;;;;;;;18.61;71.53;101769.97;4911656;29;20479;-84
2021/06/10 07:31:06;;;;;;;3.70;2.90;;;;;;;18.81;71.15;101808.53;4935743;29;20135;-84
2021/06/10 07:33:32;;;;;;;3.67;2.35;;;;;;;18.74;70.94;101799.25;4934387;29;20123;-82
2021/06/10 07:36:01;;;;;;;7.10;3.38;;;;;;;18.55;71.13;101778.22;4918170;29;20056;-84
2021/06/10 07:38:28;;;;;;;3.53;2.50;;;;;;;18.42;71.19;101763.97;4892902;29;20049;-84
2021/06/10 07:40:55;;;;;;;3.30;2.10;;;;;;;18.90;70.38;101814.28;4908873;29;20080;-82
2021/06/10 07:43:21;;;;;;;3.40;2.40;;;;;;;18.69;69.68;101758.97;4902968;29;20052;-83
2021/06/10 07:45:47;;;;;;;3.17;2.00;;;;;;;19.00;69.65;101799.59;4901533;29;20124;-82
2021/06/10 07:48:15;;;;;;;3.15;2.13;;;;;;;18.90;69.71;101801.03;4908028;29;20048;-86
2021/06/10 07:50:42;;;;;;;3.90;2.30;;;;;;;18.66;70.15;101809.38;4901598;29;20055;-84
2021/06/10 07:53:09;;;;;;;2.95;1.95;;;;;;;18.64;70.34;101809.47;4913009;29;20066;-83
2021/06/10 07:55:35;;;;;;;3.92;1.95;;;;;;;18.49;70.04;101762.69;4922739;29;20055;-84
2021/06/10 07:58:01;;;;;;;2.63;1.92;;;;;;;19.03;69.02;101799.44;4925152;29;20049;-85
2021/06/10 08:00:28;;;;;;;2.88;1.90;;;;;;;19.42;67.74;101797.22;4932713;29;20486;-84
2021/06/10 08:02:58;;;;;;;2.78;2.13;;;;;;;19.62;67.14;101802.22;4921717;29;20112;-84
2021/06/10 08:05:25;;;;;;;3.47;1.70;;;;;;;19.89;65.96;101796.25;4920994;29;20045;-82
2021/06/10 08:07:52;;;;;;;4.57;1.88;;;;;;;19.87;65.38;101762.84;4920371;29;20056;-85
2021/06/10 08:10:18;;;;;;;2.78;1.73;;;;;;;;;;4918332;29;20048;-85
2021/06/10 08:12:44;;;;;;;2.97;1.80;;;;;;;20.46;63.88;101800.72;4917439;29;20078;-84
2021/06/10 08:15:10;;;;;;;4.28;1.90;;;;;;;20.14;64.40;101760.28;4925505;29;20054;-81
2021/06/10 08:17:36;;;;;;;2.97;2.10;;;;;;;20.33;63.58;101783.88;4927023;29;20040;-80
2021/06/10 08:20:08;;;;;;;4.05;2.05;;;;;;;20.51;63.22;101815.47;4906483;29;20121;-80
2021/06/10 08:22:35;;;;;;;4.18;1.85;;;;;;;20.98;62.64;101811.63;4912211;29;20045;-80
2021/06/10 08:25:01;;;;;;;2.60;1.60;;;;;;;20.96;61.41;101802.94;4895512;29;20064;-78
2021/06/10 08:27:27;;;;;;;2.40;1.50;;;;;;;20.81;61.99;101802.09;4918192;29;20055;-80
2021/06/10 08:29:53;;;;;;;2.08;1.60;;;;;;;20.51;62.84;101816.34;4917726;29;20055;-80
2021/06/10 08:32:19;;;;;;;2.83;1.60;;;;;;;20.32;62.91;101755.66;4917754;29;20044;-80
2021/06/10 08:34:45;;;;;;;4.32;1.85;;;;;;;20.60;62.72;101796.34;4916697;29;20052;-81
2021/06/10 08:37:12;;;;;;;3.08;1.63;;;;;;;20.69;62.35;101806.38;4911602;29;20052;-81
2021/06/10 08:39:38;;;;;;;2.25;1.60;;;;;;;20.69;62.72;101805.50;4908872;29;20390;-81
2021/06/10 08:42:04;;;;;;;2.33;1.33;;;;;;;20.76;62.23;101801.56;4916395;29;20194;-81
2021/06/10 08:44:32;;;;;;;2.75;1.40;;;;;;;21.03;62.00;101808.69;4908358;29;20062;-81
2021/06/10 08:47:01;;;;;;;1.65;1.45;;;;;;;21.26;60.96;101801.88;4901270;29;20069;-82
2021/06/10 08:49:27;;;;;;;2.08;1.58;;;;;;;21.36;61.35;101816.25;4903278;29;20056;-81
2021/06/10 08:51:53;;;;;;;2.35;1.48;;;;;;;21.14;60.66;101781.44;4902999;29;20500;-82
2021/06/10 08:54:20;;;;;;;2.35;1.55;;;;;;;21.17;61.07;101802.50;4929076;29;20044;-84
2021/06/10 08:56:46;;;;;;;3.00;1.70;;;;;;;21.37;61.06;101807.34;4925104;29;20116;-80
2021/06/10 08:59:13;;;;;;;2.80;1.60;;;;;;;21.73;60.05;101818.28;4900872;29;20162;-81
2021/06/10 09:01:39;;;;;;;4.22;1.38;;;;;;;21.84;59.17;101775.88;4905322;29;20063;-82
2021/06/10 09:04:05;;;;;;;2.55;1.70;;;;;;;22.10;58.59;101813.09;4919136;29;20052;-82
2021/06/10 09:06:53;;;;;;;2.35;1.52;;;;;;;21.71;59.87;101813.06;4918493;29;20074;-82
2021/06/10 09:09:40;;;;;;;3.40;1.70;;;;;;;21.50;60.10;101758.72;4919665;29;20052;-82
2021/06/10 09:12:13;;;;;;;1.88;1.48;;;;;;;21.91;59.56;101814.38;4935376;29;20040;-82
2021/06/10 09:15:05;;;;;;;1.98;1.33;;;;;;;21.63;60.15;101818.06;4918506;29;20047;-81
2021/06/10 09:17:34;;;;;;;2.97;1.48;;;;;;;21.90;59.91;101825.13;4956358;29;20132;-80
2021/06/10 09:20:03;;;;;;;1.70;1.40;;;;;;;21.61;61.92;101824.44;4942802;29;20505;-81
2021/06/10 09:22:34;;;;;;;3.83;1.77;;;;;;;21.32;63.46;101798.81;4932801;29;20055;-82
2021/06/10 09:25:21;;;;;;;2.30;1.50;;;;;;;21.67;62.12;101824.84;4921698;29;20043;-82
2021/06/10 09:27:54;;;;;;;2.78;1.52;;;;;;;21.78;61.48;101796.72;4937138;29;20067;-82
2021/06/10 09:30:33;;;;;;;3.00;1.85;;;;;;;21.94;60.35;101807.16;4939096;29;20047;-82
2021/06/10 09:33:01;;;;;;;2.38;1.60;;;;;;;21.92;60.59;101783.31;4910682;29;20060;-81
2021/06/10 09:35:29;;;;;;;2.28;1.50;;;;;;;22.04;60.64;101816.19;4916613;29;20544;-81
2021/06/10 09:38:00;;;;;;;2.22;1.52;;;;;;;22.19;60.40;101812.47;4938666;29;20056;-80
2021/06/10 09:40:29;;;;;;;3.47;2.08;;;;;;;22.48;59.68;101814.03;4940253;29;20151;-81
2021/06/10 09:42:56;;;;;;;2.42;1.40;;;;;;;22.60;59.16;101804.34;4941145;28;20047;-81
2021/06/10 09:45:28;;;;;;;3.13;1.40;;;;;;;22.47;59.05;101799.91;4935470;29;20134;-81
2021/06/10 09:48:05;;;;;;;1.63;1.33;;;;;;;22.13;59.50;101772.13;4928617;29;20056;-80
2021/06/10 09:50:43;;;;;;;2.97;1.40;;;;;;;21.75;59.42;101716.25;4941847;28;20048;-81
2021/06/10 09:53:18;;;;;;;1.77;1.40;;;;;;;22.38;59.63;101800.56;4955160;28;20079;-81
2021/06/10 09:55:53;;;;;;;2.47;1.60;;;;;;;22.66;58.71;101804.75;4958431;28;20052;-80
2021/06/10 09:58:22;;;;;;;1.75;1.40;;;;;;;23.09;57.69;101807.91;4938846;29;20052;-80
2021/06/10 10:00:48;;;;;;;2.67;1.30;;;;;;;23.03;57.81;101806.53;4937695;29;20544;-80
2021/06/10 10:03:29;;;;;;;3.10;1.20;;;;;;;22.95;57.80;101811.56;4928320;29;20075;-82
2021/06/10 10:05:59;;;;;;;3.65;1.38;;;;;;;22.59;58.82;101805.31;4935879;29;20051;-81
2021/06/10 10:08:28;;;;;;;6.22;1.70;;;;;;;22.39;59.09;101810.22;4933802;29;20052;-82
2021/06/10 10:11:03;;;;;;;2.75;1.50;;;;;;;22.41;59.43;101812.78;4919282;29;20413;-80
2021/06/10 10:13:31;;;;;;;1.80;1.27;;;;;;;22.34;60.08;101805.19;4921918;29;20051;-82
2021/06/10 10:15:59;;;;;;;2.58;1.60;;;;;;;22.47;59.53;101807.03;4935328;29;20084;-80
2021/06/10 10:18:25;;;;;;;3.13;1.45;;;;;;;22.48;58.79;101771.47;4927105;29;20095;-81
2021/06/10 10:20:51;;;;;;;2.20;1.20;;;;;;;22.56;57.82;101707.91;4916331;29;20055;-79
2021/06/10 10:23:17;;;;;;;1.45;1.10;;;;;;;23.71;56.43;101790.84;4935229;29;20064;-80
2021/06/10 10:25:43;;;;;;;3.35;1.52;;;;;;;23.65;55.82;101809.97;4928601;29;20051;-82
2021/06/10 10:28:12;;;;;;;3.40;2.72;;;;;;;23.31;56.81;101804.50;4934625;29;20055;-81
2021/06/10 10:30:48;;;;;;;2.38;1.20;;;;;;;22.78;57.80;101810.16;4938013;29;20067;-81
2021/06/10 10:33:21;;;;;;;1.65;1.27;;;;;;;22.75;58.24;101802.38;4938154;23;20044;-81
2021/06/10 10:35:57;;;;;;;1.95;1.40;;;;;;;22.57;58.07;101786.78;4920473;29;20056;-81
2021/06/10 10:38:40;;;;;;;2.88;1.40;;;;;;;22.78;57.72;101794.19;4922326;29;20378;-80
2021/06/10 10:41:14;;;;;;;1.50;1.20;;;;;;;22.75;57.81;101794.41;4923225;29;20052;-80
2021/06/10 10:43:40;;;;;;;;;;;;;;;22.97;57.67;101799.00;4924911;29;20088;-81
2021/06/10 10:46:20;;;;;;;1.88;1.10;;;;;;;22.96;56.67;101734.25;4921699;29;19982;-81
2021/06/10 10:48:49;;;;;;;2.05;1.25;;;;;;;23.69;55.42;101779.44;4900000;29;20044;-81
2021/06/10 10:51:36;;;;;;;1.33;1.08;;;;;;;23.94;54.36;101777.56;4922757;29;20416;-81
2021/06/10 10:54:11;;;;;;;1.63;1.20;;;;;;;23.91;54.51;101759.09;4924063;29;20052;-80
2021/06/10 10:56:42;;;;;;;2.30;1.20;;;;;;;24.28;53.60;101786.44;4925764;29;20165;-82
2021/06/10 10:59:11;;;;;;;3.10;1.77;;;;;;;24.20;53.50;101758.66;4927134;29;20108;-80
2021/06/10 11:01:37;;;;;;;2.78;1.40;;;;;;;24.44;53.19;101753.19;4921095;29;20412;-80
2021/06/10 11:04:03;;;;;;;2.35;1.67;;;;;;;24.59;52.94;101773.28;4919640;29;20052;-80
2021/06/10 11:06:30;;;;;;;2.47;1.23;;;;;;;24.27;53.38;101776.72;4920268;29;20052;-80
2021/06/10 11:09:14;;;;;;;1.52;1.25;;;;;;;24.47;53.10;101768.94;4919194;29;20044;-80
2021/06/10 11:11:55;;;;;;;2.20;1.75;;;;;;;24.30;52.80;101722.25;4919303;29;20056;-80
2021/06/10 11:14:52;;;;;;;3.50;1.60;;;;;;;24.40;52.45;101736.56;4922999;29;20052;-80
2021/06/10 11:17:21;;;;;;;2.70;1.40;;;;;;;24.84;52.15;101763.31;4913435;29;20068;-79
2021/06/10 11:19:56;;;;;;;2.78;1.40;;;;;;;24.26;52.82;101739.50;4906331;29;20052;-79
2021/06/10 11:22:40;;;;;;;1.65;1.25;;;;;;;24.07;52.95;101703.63;4921895;29;20044;-79
2021/06/10 11:25:08;;;;;;;;;;;;;;;24.37;53.28;101760.81;4915335;29;20178;-80
2021/06/10 11:27:46;;;;;;;1.77;1.25;;;;;;;24.68;52.73;101754.84;4924801;29;19923;-81
2021/06/10 11:30:22;;;;;;;2.72;1.60;;;;;;;24.36;53.21;101752.94;4920529;29;20048;-81
2021/06/10 11:33:07;;;;;;;2.67;1.40;;;;;;;23.89;54.12;101732.56;4933769;29;20044;-81